sensor_id;sensor_type;location;lat;lon;timestamp;pressure;altitude;pressure_sealevel;temperature;humidity
48874;BME280;66155;46.204;5.220;2023-02-16T00:03:41;99867.00;;;8.79;47.42
48874;BME280;66155;46.204;5.220;2023-02-16T00:08:44;99857.03;;;8.76;46.95
48874;BME280;66155;46.204;5.220;2023-02-16T00:13:44;99854.66;;;8.61;47.15
48874;BME280;66155;46.204;5.220;2023-02-16T00:18:49;99859.47;;;8.57;47.25
48874;BME280;66155;46.204;5.220;2023-02-16T00:23:49;99855.09;;;8.58;47.87
48874;BME280;66155;46.204;5.220;2023-02-16T00:28:51;99868.28;;;8.50;47.43
48874;BME280;66155;46.204;5.220;2023-02-16T00:33:53;99867.31;;;8.44;47.83
48874;BME280;66155;46.204;5.220;2023-02-16T00:38:54;99858.91;;;8.42;48.06
48874;BME280;66155;46.204;5.220;2023-02-16T00:43:54;99855.28;;;8.36;47.78
48874;BME280;66155;46.204;5.220;2023-02-16T00:48:54;99860.91;;;8.27;48.50
48874;BME280;66155;46.204;5.220;2023-02-16T00:53:55;99864.88;;;8.29;48.10
48874;BME280;66155;46.204;5.220;2023-02-16T00:58:56;99862.69;;;8.33;47.96
48874;BME280;66155;46.204;5.220;2023-02-16T01:04:02;99862.28;;;8.36;47.79
48874;BME280;66155;46.204;5.220;2023-02-16T01:09:12;99870.88;;;8.43;48.06
48874;BME280;66155;46.204;5.220;2023-02-16T01:14:32;99864.13;;;8.42;47.94
48874;BME280;66155;46.204;5.220;2023-02-16T01:19:32;99865.47;;;8.38;47.85
48874;BME280;66155;46.204;5.220;2023-02-16T01:24:33;99863.28;;;8.35;47.99
48874;BME280;66155;46.204;5.220;2023-02-16T01:29:33;99860.91;;;8.33;48.18
48874;BME280;66155;46.204;5.220;2023-02-16T01:34:34;99860.28;;;8.31;48.07
48874;BME280;66155;46.204;5.220;2023-02-16T01:39:34;99858.50;;;8.32;47.94
48874;BME280;66155;46.204;5.220;2023-02-16T01:44:40;99861.69;;;8.34;47.95
48874;BME280;66155;46.204;5.220;2023-02-16T01:49:42;99871.09;;;8.35;47.30
48874;BME280;66155;46.204;5.220;2023-02-16T01:54:48;99876.88;;;8.30;47.73
48874;BME280;66155;46.204;5.220;2023-02-16T02:04:58;99861.91;;;8.12;48.38
48874;BME280;66155;46.204;5.220;2023-02-16T02:10:30;99873.69;;;8.08;48.19
48874;BME280;66155;46.204;5.220;2023-02-16T02:15:34;99872.28;;;8.06;48.22
48874;BME280;66155;46.204;5.220;2023-02-16T02:20:40;99863.50;;;7.93;48.62
48874;BME280;66155;46.204;5.220;2023-02-16T02:37:08;99849.72;;;7.59;49.79
48874;BME280;66155;46.204;5.220;2023-02-16T02:42:22;99844.94;;;7.50;49.62
48874;BME280;66155;46.204;5.220;2023-02-16T02:47:39;99843.91;;;7.44;49.71
48874;BME280;66155;46.204;5.220;2023-02-16T02:52:39;99839.72;;;7.36;49.67
48874;BME280;66155;46.204;5.220;2023-02-16T02:57:45;99835.34;;;7.30;49.54
48874;BME280;66155;46.204;5.220;2023-02-16T03:03:24;99838.31;;;7.27;49.41
48874;BME280;66155;46.204;5.220;2023-02-16T03:08:29;99837.31;;;7.21;49.60
48874;BME280;66155;46.204;5.220;2023-02-16T03:13:35;99832.09;;;7.15;49.72
48874;BME280;66155;46.204;5.220;2023-02-16T03:18:39;99841.44;;;7.09;49.75
48874;BME280;66155;46.204;5.220;2023-02-16T03:24:00;99835.44;;;7.02;49.47
48874;BME280;66155;46.204;5.220;2023-02-16T03:29:22;99849.00;;;7.04;49.74
48874;BME280;66155;46.204;5.220;2023-02-16T03:34:25;99849.38;;;7.01;49.35
48874;BME280;66155;46.204;5.220;2023-02-16T03:39:28;99845.00;;;7.01;49.55
48874;BME280;66155;46.204;5.220;2023-02-16T03:44:28;99836.03;;;6.97;49.60
48874;BME280;66155;46.204;5.220;2023-02-16T03:49:29;99843.19;;;6.95;49.49
48874;BME280;66155;46.204;5.220;2023-02-16T03:54:29;99849.34;;;6.94;49.75
48874;BME280;66155;46.204;5.220;2023-02-16T03:59:29;99853.09;;;6.85;49.66
48874;BME280;66155;46.204;5.220;2023-02-16T04:04:30;99846.13;;;6.79;49.80
48874;BME280;66155;46.204;5.220;2023-02-16T04:09:30;99856.44;;;6.72;50.05
48874;BME280;66155;46.204;5.220;2023-02-16T04:14:31;99851.63;;;6.69;50.49
48874;BME280;66155;46.204;5.220;2023-02-16T04:19:31;99848.41;;;6.60;50.40
48874;BME280;66155;46.204;5.220;2023-02-16T04:24:31;99865.38;;;6.70;50.26
48874;BME280;66155;46.204;5.220;2023-02-16T04:29:32;99867.13;;;6.62;50.17
48874;BME280;66155;46.204;5.220;2023-02-16T04:34:32;99877.47;;;6.56;50.76
48874;BME280;66155;46.204;5.220;2023-02-16T04:39:33;99878.88;;;6.58;50.42
48874;BME280;66155;46.204;5.220;2023-02-16T04:44:33;99880.09;;;6.27;52.25
48874;BME280;66155;46.204;5.220;2023-02-16T04:49:33;99883.88;;;5.82;53.33
48874;BME280;66155;46.204;5.220;2023-02-16T04:54:34;99889.91;;;5.67;53.54
48874;BME280;66155;46.204;5.220;2023-02-16T04:59:34;99883.06;;;5.60;53.77
48874;BME280;66155;46.204;5.220;2023-02-16T05:04:35;99879.84;;;5.58;54.05
48874;BME280;66155;46.204;5.220;2023-02-16T05:09:35;99875.78;;;5.70;52.54
48874;BME280;66155;46.204;5.220;2023-02-16T05:14:36;99871.81;;;5.67;52.72
48874;BME280;66155;46.204;5.220;2023-02-16T05:19:46;99874.94;;;5.63;53.28
48874;BME280;66155;46.204;5.220;2023-02-16T05:24:47;99872.47;;;5.76;52.39
48874;BME280;66155;46.204;5.220;2023-02-16T05:29:48;99879.47;;;5.82;52.41
48874;BME280;66155;46.204;5.220;2023-02-16T05:34:48;99874.94;;;5.84;52.76
48874;BME280;66155;46.204;5.220;2023-02-16T05:39:49;99883.31;;;5.86;52.78
48874;BME280;66155;46.204;5.220;2023-02-16T05:44:51;99883.16;;;5.95;52.70
48874;BME280;66155;46.204;5.220;2023-02-16T05:49:52;99875.56;;;5.86;52.89
48874;BME280;66155;46.204;5.220;2023-02-16T05:54:52;99878.50;;;5.83;52.30
48874;BME280;66155;46.204;5.220;2023-02-16T05:59:52;99890.00;;;5.81;52.63
48874;BME280;66155;46.204;5.220;2023-02-16T06:04:53;99880.25;;;5.76;52.37
48874;BME280;66155;46.204;5.220;2023-02-16T06:09:53;99871.25;;;5.72;52.33
48874;BME280;66155;46.204;5.220;2023-02-16T06:14:54;99885.88;;;5.65;52.79
48874;BME280;66155;46.204;5.220;2023-02-16T06:19:55;99889.84;;;5.61;52.81
48874;BME280;66155;46.204;5.220;2023-02-16T06:24:55;99887.50;;;5.66;52.39
48874;BME280;66155;46.204;5.220;2023-02-16T06:29:55;99897.22;;;5.64;52.23
48874;BME280;66155;46.204;5.220;2023-02-16T06:34:56;99890.09;;;5.66;52.35
48874;BME280;66155;46.204;5.220;2023-02-16T06:39:56;99892.66;;;5.66;52.37
48874;BME280;66155;46.204;5.220;2023-02-16T06:44:57;99894.91;;;5.69;51.96
48874;BME280;66155;46.204;5.220;2023-02-16T06:49:57;99899.47;;;5.67;52.38
48874;BME280;66155;46.204;5.220;2023-02-16T06:54:57;99895.88;;;5.68;52.04
48874;BME280;66155;46.204;5.220;2023-02-16T06:59:58;99905.16;;;5.62;52.08
48874;BME280;66155;46.204;5.220;2023-02-16T07:04:58;99917.34;;;5.68;51.97
48874;BME280;66155;46.204;5.220;2023-02-16T07:09:59;99926.78;;;5.76;52.01
48874;BME280;66155;46.204;5.220;2023-02-16T07:14:59;99922.13;;;5.86;51.89
48874;BME280;66155;46.204;5.220;2023-02-16T07:19:59;99921.38;;;5.93;51.68
48874;BME280;66155;46.204;5.220;2023-02-16T07:25:00;99943.31;;;5.97;51.59
48874;BME280;66155;46.204;5.220;2023-02-16T07:30:00;99945.78;;;6.05;51.74
48874;BME280;66155;46.204;5.220;2023-02-16T07:35:01;99947.84;;;6.09;51.61
48874;BME280;66155;46.204;5.220;2023-02-16T07:40:01;99951.56;;;6.07;51.59
48874;BME280;66155;46.204;5.220;2023-02-16T07:45:02;99936.13;;;6.14;51.71
48874;BME280;66155;46.204;5.220;2023-02-16T07:50:04;99946.22;;;6.08;52.14
48874;BME280;66155;46.204;5.220;2023-02-16T07:55:04;99944.84;;;6.13;51.83
48874;BME280;66155;46.204;5.220;2023-02-16T08:00:06;99938.59;;;6.28;51.74
48874;BME280;66155;46.204;5.220;2023-02-16T08:05:06;99957.28;;;6.45;51.30
48874;BME280;66155;46.204;5.220;2023-02-16T08:10:07;99950.81;;;6.63;51.11
48874;BME280;66155;46.204;5.220;2023-02-16T08:15:08;99945.31;;;6.73;51.31
48874;BME280;66155;46.204;5.220;2023-02-16T08:20:09;99951.97;;;6.89;51.21
48874;BME280;66155;46.204;5.220;2023-02-16T08:25:10;99959.00;;;7.01;51.17
48874;BME280;66155;46.204;5.220;2023-02-16T08:30:11;99965.06;;;7.15;50.76
48874;BME280;66155;46.204;5.220;2023-02-16T08:35:12;99967.72;;;7.29;51.12
48874;BME280;66155;46.204;5.220;2023-02-16T08:40:14;99976.34;;;7.42;50.73
48874;BME280;66155;46.204;5.220;2023-02-16T08:45:15;99969.59;;;7.48;51.05
48874;BME280;66155;46.204;5.220;2023-02-16T08:50:15;99974.03;;;7.61;50.76
48874;BME280;66155;46.204;5.220;2023-02-16T08:55:16;99975.63;;;7.69;51.18
48874;BME280;66155;46.204;5.220;2023-02-16T09:00:17;99974.06;;;7.81;51.12
48874;BME280;66155;46.204;5.220;2023-02-16T09:05:33;99977.69;;;7.93;51.02
48874;BME280;66155;46.204;5.220;2023-02-16T09:10:34;99977.91;;;8.05;50.85
48874;BME280;66155;46.204;5.220;2023-02-16T09:15:35;99991.09;;;8.24;50.86
48874;BME280;66155;46.204;5.220;2023-02-16T09:20:38;99988.34;;;8.38;50.65
48874;BME280;66155;46.204;5.220;2023-02-16T09:25:39;99986.78;;;8.44;50.78
48874;BME280;66155;46.204;5.220;2023-02-16T09:30:40;99992.38;;;8.54;50.87
48874;BME280;66155;46.204;5.220;2023-02-16T09:35:41;100004.16;;;8.64;50.78
48874;BME280;66155;46.204;5.220;2023-02-16T09:40:42;99998.72;;;8.92;51.06
48874;BME280;66155;46.204;5.220;2023-02-16T09:45:46;99998.47;;;9.07;50.85
48874;BME280;66155;46.204;5.220;2023-02-16T09:50:51;99998.03;;;9.17;50.88
48874;BME280;66155;46.204;5.220;2023-02-16T10:07:37;100009.97;;;9.44;51.01
48874;BME280;66155;46.204;5.220;2023-02-16T10:12:46;100011.13;;;9.55;50.94
48874;BME280;66155;46.204;5.220;2023-02-16T10:18:15;100014.91;;;9.59;51.12
48874;BME280;66155;46.204;5.220;2023-02-16T10:28:46;100022.00;;;9.84;50.78
48874;BME280;66155;46.204;5.220;2023-02-16T10:44:38;100003.53;;;10.24;50.94
48874;BME280;66155;46.204;5.220;2023-02-16T10:49:41;99998.69;;;10.34;51.50
48874;BME280;66155;46.204;5.220;2023-02-16T10:54:42;99990.53;;;10.49;51.18
48874;BME280;66155;46.204;5.220;2023-02-16T10:59:44;99996.28;;;10.58;51.18
48874;BME280;66155;46.204;5.220;2023-02-16T11:04:47;99990.94;;;10.71;51.31
48874;BME280;66155;46.204;5.220;2023-02-16T11:09:50;99984.97;;;10.89;50.46
48874;BME280;66155;46.204;5.220;2023-02-16T11:15:02;99974.25;;;10.97;51.00
48874;BME280;66155;46.204;5.220;2023-02-16T11:20:05;99970.25;;;11.13;50.95
48874;BME280;66155;46.204;5.220;2023-02-16T11:30:35;99958.50;;;11.41;50.10
48874;BME280;66155;46.204;5.220;2023-02-16T11:35:41;99964.91;;;11.57;50.08
48874;BME280;66155;46.204;5.220;2023-02-16T11:40:50;99949.28;;;11.69;50.09
48874;BME280;66155;46.204;5.220;2023-02-16T11:51:02;99942.25;;;12.00;49.53
48874;BME280;66155;46.204;5.220;2023-02-16T11:56:24;99942.72;;;12.20;49.35
48874;BME280;66155;46.204;5.220;2023-02-16T12:22:39;99920.66;;;12.75;48.00
48874;BME280;66155;46.204;5.220;2023-02-16T12:53:49;99884.03;;;13.90;44.64
48874;BME280;66155;46.204;5.220;2023-02-16T12:58:58;99873.59;;;14.12;44.40
48874;BME280;66155;46.204;5.220;2023-02-16T13:09:24;99865.84;;;14.78;43.16
48874;BME280;66155;46.204;5.220;2023-02-16T13:14:34;99862.69;;;15.58;42.03
48874;BME280;66155;46.204;5.220;2023-02-16T13:19:36;99839.84;;;23.71;28.22
48874;BME280;66155;46.204;5.220;2023-02-16T13:41:41;99806.28;;;25.29;25.13
48874;BME280;66155;46.204;5.220;2023-02-16T13:46:36;99806.91;;;25.08;26.08
48874;BME280;66155;46.204;5.220;2023-02-16T13:51:41;99793.88;;;25.15;24.59
48874;BME280;66155;46.204;5.220;2023-02-16T13:56:43;99795.22;;;26.76;21.63
48874;BME280;66155;46.204;5.220;2023-02-16T14:01:48;99792.50;;;26.33;22.47
48874;BME280;66155;46.204;5.220;2023-02-16T14:07:19;99795.63;;;25.02;23.71
48874;BME280;66155;46.204;5.220;2023-02-16T14:27:52;99766.94;;;34.36;16.77
48874;BME280;66155;46.204;5.220;2023-02-16T14:38:32;99756.41;;;36.43;14.87
48874;BME280;66155;46.204;5.220;2023-02-16T14:43:51;99752.41;;;36.69;14.48
48874;BME280;66155;46.204;5.220;2023-02-16T14:59:58;99730.88;;;36.96;13.87
48874;BME280;66155;46.204;5.220;2023-02-16T15:05:17;99728.72;;;36.66;14.22
48874;BME280;66155;46.204;5.220;2023-02-16T15:10:24;99724.34;;;36.23;14.29
48874;BME280;66155;46.204;5.220;2023-02-16T15:15:40;99727.56;;;29.52;17.68
48874;BME280;66155;46.204;5.220;2023-02-16T15:20:45;99737.53;;;27.57;19.98
48874;BME280;66155;46.204;5.220;2023-02-16T15:25:59;99737.75;;;28.54;18.92
48874;BME280;66155;46.204;5.220;2023-02-16T15:31:10;99728.34;;;28.60;18.87
48874;BME280;66155;46.204;5.220;2023-02-16T15:36:18;99722.72;;;32.17;15.87
48874;BME280;66155;46.204;5.220;2023-02-16T15:41:36;99727.41;;;31.93;15.49
48874;BME280;66155;46.204;5.220;2023-02-16T15:46:39;99744.78;;;26.86;19.86
48874;BME280;66155;46.204;5.220;2023-02-16T15:51:41;99744.84;;;24.46;21.87
48874;BME280;66155;46.204;5.220;2023-02-16T15:56:44;99751.66;;;23.01;22.45
48874;BME280;66155;46.204;5.220;2023-02-16T16:01:46;99753.47;;;22.33;23.62
48874;BME280;66155;46.204;5.220;2023-02-16T16:06:48;99746.41;;;21.87;23.70
48874;BME280;66155;46.204;5.220;2023-02-16T16:11:52;99737.84;;;21.62;24.04
48874;BME280;66155;46.204;5.220;2023-02-16T16:16:53;99744.66;;;21.21;24.57
48874;BME280;66155;46.204;5.220;2023-02-16T16:21:54;99751.09;;;20.01;25.35
48874;BME280;66155;46.204;5.220;2023-02-16T16:26:57;99748.16;;;19.79;25.57
48874;BME280;66155;46.204;5.220;2023-02-16T16:31:59;99756.53;;;19.32;26.01
48874;BME280;66155;46.204;5.220;2023-02-16T16:37:00;99764.56;;;18.83;26.68
48874;BME280;66155;46.204;5.220;2023-02-16T16:42:26;99771.94;;;18.31;28.04
48874;BME280;66155;46.204;5.220;2023-02-16T16:47:30;99761.53;;;18.00;27.95
48874;BME280;66155;46.204;5.220;2023-02-16T16:52:37;99768.69;;;17.79;28.10
48874;BME280;66155;46.204;5.220;2023-02-16T16:57:37;99776.34;;;17.70;27.71
48874;BME280;66155;46.204;5.220;2023-02-16T17:02:38;99768.72;;;17.22;28.65
48874;BME280;66155;46.204;5.220;2023-02-16T17:07:38;99761.63;;;16.97;28.81
48874;BME280;66155;46.204;5.220;2023-02-16T17:12:38;99767.84;;;16.65;29.54
48874;BME280;66155;46.204;5.220;2023-02-16T17:17:39;99773.84;;;16.40;30.11
48874;BME280;66155;46.204;5.220;2023-02-16T17:22:39;99785.88;;;16.26;29.71
48874;BME280;66155;46.204;5.220;2023-02-16T17:27:40;99785.22;;;15.98;30.07
48874;BME280;66155;46.204;5.220;2023-02-16T17:32:40;99794.28;;;15.75;30.14
48874;BME280;66155;46.204;5.220;2023-02-16T17:37:40;99795.19;;;15.58;30.47
48874;BME280;66155;46.204;5.220;2023-02-16T17:42:41;99804.28;;;15.46;30.48
48874;BME280;66155;46.204;5.220;2023-02-16T17:47:43;99808.34;;;15.31;30.76
48874;BME280;66155;46.204;5.220;2023-02-16T17:52:44;99806.44;;;15.21;31.19
48874;BME280;66155;46.204;5.220;2023-02-16T17:57:44;99811.63;;;15.16;31.19
48874;BME280;66155;46.204;5.220;2023-02-16T18:02:45;99810.28;;;15.09;31.47
48874;BME280;66155;46.204;5.220;2023-02-16T18:07:46;99816.72;;;14.96;31.59
48874;BME280;66155;46.204;5.220;2023-02-16T18:12:46;99822.38;;;14.88;31.75
48874;BME280;66155;46.204;5.220;2023-02-16T18:17:47;99825.19;;;14.81;31.96
48874;BME280;66155;46.204;5.220;2023-02-16T18:22:47;99823.81;;;14.73;31.99
48874;BME280;66155;46.204;5.220;2023-02-16T18:27:48;99831.81;;;14.61;32.08
48874;BME280;66155;46.204;5.220;2023-02-16T18:32:49;99829.59;;;14.53;32.22
48874;BME280;66155;46.204;5.220;2023-02-16T18:37:49;99833.34;;;14.40;32.45
48874;BME280;66155;46.204;5.220;2023-02-16T18:42:50;99835.28;;;14.28;32.98
48874;BME280;66155;46.204;5.220;2023-02-16T18:47:50;99841.13;;;14.13;33.42
48874;BME280;66155;46.204;5.220;2023-02-16T18:52:51;99845.44;;;14.02;33.49
48874;BME280;66155;46.204;5.220;2023-02-16T18:57:51;99849.72;;;13.92;34.00
48874;BME280;66155;46.204;5.220;2023-02-16T19:02:52;99850.34;;;13.82;34.08
48874;BME280;66155;46.204;5.220;2023-02-16T19:07:54;99859.88;;;13.71;34.16
48874;BME280;66155;46.204;5.220;2023-02-16T19:12:54;99870.03;;;13.67;34.49
48874;BME280;66155;46.204;5.220;2023-02-16T19:17:55;99874.97;;;13.64;34.33
48874;BME280;66155;46.204;5.220;2023-02-16T19:22:55;99868.84;;;13.58;34.66
48874;BME280;66155;46.204;5.220;2023-02-16T19:27:56;99869.72;;;13.47;35.11
48874;BME280;66155;46.204;5.220;2023-02-16T19:32:56;99875.56;;;13.37;35.58
48874;BME280;66155;46.204;5.220;2023-02-16T19:37:57;99882.88;;;13.23;35.87
48874;BME280;66155;46.204;5.220;2023-02-16T19:42:57;99890.91;;;13.05;36.51
48874;BME280;66155;46.204;5.220;2023-02-16T19:47:58;99892.53;;;12.94;36.79
48874;BME280;66155;46.204;5.220;2023-02-16T19:52:58;99888.00;;;12.89;36.96
48874;BME280;66155;46.204;5.220;2023-02-16T19:57:58;99904.19;;;12.74;37.26
48874;BME280;66155;46.204;5.220;2023-02-16T20:02:59;99898.41;;;12.72;37.43
48874;BME280;66155;46.204;5.220;2023-02-16T20:07:59;99902.41;;;12.63;37.69
48874;BME280;66155;46.204;5.220;2023-02-16T20:13:00;99907.03;;;12.61;37.98
48874;BME280;66155;46.204;5.220;2023-02-16T20:18:00;99917.03;;;12.64;37.83
48874;BME280;66155;46.204;5.220;2023-02-16T20:23:01;99925.44;;;12.66;37.83
48874;BME280;66155;46.204;5.220;2023-02-16T20:28:05;99930.22;;;12.69;37.82
48874;BME280;66155;46.204;5.220;2023-02-16T20:33:05;99923.97;;;12.70;37.89
48874;BME280;66155;46.204;5.220;2023-02-16T20:38:05;99924.78;;;12.71;38.09
48874;BME280;66155;46.204;5.220;2023-02-16T20:43:06;99926.59;;;12.70;38.08
48874;BME280;66155;46.204;5.220;2023-02-16T20:48:08;99919.75;;;12.69;38.44
48874;BME280;66155;46.204;5.220;2023-02-16T20:53:09;99922.03;;;12.66;39.02
48874;BME280;66155;46.204;5.220;2023-02-16T20:58:09;99918.19;;;12.57;39.05
48874;BME280;66155;46.204;5.220;2023-02-16T21:03:09;99915.91;;;12.48;39.10
48874;BME280;66155;46.204;5.220;2023-02-16T21:08:10;99919.44;;;12.30;39.32
48874;BME280;66155;46.204;5.220;2023-02-16T21:13:10;99921.25;;;12.06;39.91
48874;BME280;66155;46.204;5.220;2023-02-16T21:18:10;99926.50;;;12.06;39.69
48874;BME280;66155;46.204;5.220;2023-02-16T21:23:11;99928.38;;;11.99;39.29
48874;BME280;66155;46.204;5.220;2023-02-16T21:28:11;99929.63;;;11.96;39.38
48874;BME280;66155;46.204;5.220;2023-02-16T21:33:12;99936.69;;;11.96;39.38
48874;BME280;66155;46.204;5.220;2023-02-16T21:38:12;99938.88;;;11.80;40.25
48874;BME280;66155;46.204;5.220;2023-02-16T21:43:13;99939.88;;;11.68;40.44
48874;BME280;66155;46.204;5.220;2023-02-16T21:48:13;99937.63;;;11.71;39.87
48874;BME280;66155;46.204;5.220;2023-02-16T21:53:32;99939.44;;;11.71;40.47
48874;BME280;66155;46.204;5.220;2023-02-16T21:58:33;99940.09;;;11.66;40.36
48874;BME280;66155;46.204;5.220;2023-02-16T22:03:33;99943.97;;;11.64;40.23
48874;BME280;66155;46.204;5.220;2023-02-16T22:08:34;99946.56;;;11.64;40.04
48874;BME280;66155;46.204;5.220;2023-02-16T22:13:38;99939.97;;;11.61;40.15
48874;BME280;66155;46.204;5.220;2023-02-16T22:18:39;99942.00;;;11.59;40.30
48874;BME280;66155;46.204;5.220;2023-02-16T22:23:39;99941.56;;;11.62;39.92
48874;BME280;66155;46.204;5.220;2023-02-16T22:28:40;99941.56;;;11.62;39.88
48874;BME280;66155;46.204;5.220;2023-02-16T22:33:40;99936.00;;;11.58;39.65
48874;BME280;66155;46.204;5.220;2023-02-16T22:38:42;99934.38;;;11.57;39.93
48874;BME280;66155;46.204;5.220;2023-02-16T22:43:43;99940.03;;;11.54;40.00
48874;BME280;66155;46.204;5.220;2023-02-16T22:48:43;99932.44;;;11.53;40.18
48874;BME280;66155;46.204;5.220;2023-02-16T22:53:44;99940.59;;;11.45;40.63
48874;BME280;66155;46.204;5.220;2023-02-16T22:58:45;99940.44;;;11.39;40.10
48874;BME280;66155;46.204;5.220;2023-02-16T23:03:48;99950.31;;;11.37;40.57
48874;BME280;66155;46.204;5.220;2023-02-16T23:08:58;99951.88;;;11.38;40.19
48874;BME280;66155;46.204;5.220;2023-02-16T23:13:59;99951.81;;;11.45;40.09
48874;BME280;66155;46.204;5.220;2023-02-16T23:19:00;99949.78;;;11.47;39.90
48874;BME280;66155;46.204;5.220;2023-02-16T23:24:00;99943.41;;;11.43;39.94
48874;BME280;66155;46.204;5.220;2023-02-16T23:29:01;99961.91;;;11.41;40.47
48874;BME280;66155;46.204;5.220;2023-02-16T23:34:03;99966.91;;;11.43;40.46
48874;BME280;66155;46.204;5.220;2023-02-16T23:39:09;99969.16;;;11.39;41.07
48874;BME280;66155;46.204;5.220;2023-02-16T23:44:11;99972.84;;;11.50;40.82
48874;BME280;66155;46.204;5.220;2023-02-16T23:49:12;99979.06;;;11.49;40.24
48874;BME280;66155;46.204;5.220;2023-02-16T23:54:13;99981.44;;;11.51;40.51
48874;BME280;66155;46.204;5.220;2023-02-16T23:59:13;99973.72;;;11.44;40.74
